sensor_id;sensor_type;location;lat;lon;timestamp;temperature;humidity
56753;DHT22;42627;42.646;23.642;2023-03-09T00:01:30;3.30;99.90
56753;DHT22;42627;42.646;23.642;2023-03-09T00:03:37;3.30;99.90
56753;DHT22;42627;42.646;23.642;2023-03-09T00:06:02;3.30;99.90
56753;DHT22;42627;42.646;23.642;2023-03-09T00:08:53;3.30;99.90
56753;DHT22;42627;42.646;23.642;2023-03-09T00:10:59;3.40;99.90
56753;DHT22;42627;42.646;23.642;2023-03-09T00:13:00;3.30;99.90
56753;DHT22;42627;42.646;23.642;2023-03-09T00:15:00;3.20;99.90
56753;DHT22;42627;42.646;23.642;2023-03-09T00:17:01;3.20;99.90
56753;DHT22;42627;42.646;23.642;2023-03-09T00:19:02;3.10;99.90
56753;DHT22;42627;42.646;23.642;2023-03-09T00:21:02;3.20;99.90
56753;DHT22;42627;42.646;23.642;2023-03-09T00:23:03;3.20;99.90
56753;DHT22;42627;42.646;23.642;2023-03-09T00:27:19;3.20;99.90
56753;DHT22;42627;42.646;23.642;2023-03-09T00:29:20;3.60;99.90
56753;DHT22;42627;42.646;23.642;2023-03-09T00:31:20;3.20;99.90
56753;DHT22;42627;42.646;23.642;2023-03-09T00:33:21;3.20;99.90
56753;DHT22;42627;42.646;23.642;2023-03-09T00:35:40;3.20;99.90
56753;DHT22;42627;42.646;23.642;2023-03-09T00:38:08;3.70;99.90
56753;DHT22;42627;42.646;23.642;2023-03-09T00:40:14;3.80;99.90
56753;DHT22;42627;42.646;23.642;2023-03-09T00:42:15;3.20;99.90
56753;DHT22;42627;42.646;23.642;2023-03-09T00:44:16;3.20;99.90
56753;DHT22;42627;42.646;23.642;2023-03-09T00:46:16;3.40;99.90
56753;DHT22;42627;42.646;23.642;2023-03-09T00:48:17;3.20;99.90
56753;DHT22;42627;42.646;23.642;2023-03-09T00:50:18;3.40;99.90
56753;DHT22;42627;42.646;23.642;2023-03-09T00:52:18;3.20;99.90
56753;DHT22;42627;42.646;23.642;2023-03-09T00:56:29;3.30;99.90
56753;DHT22;42627;42.646;23.642;2023-03-09T00:58:30;3.20;99.90
56753;DHT22;42627;42.646;23.642;2023-03-09T01:00:31;3.20;99.60
56753;DHT22;42627;42.646;23.642;2023-03-09T01:02:34;3.10;99.50
56753;DHT22;42627;42.646;23.642;2023-03-09T01:04:46;3.10;99.60
56753;DHT22;42627;42.646;23.642;2023-03-09T01:07:15;3.00;99.90
56753;DHT22;42627;42.646;23.642;2023-03-09T01:09:20;3.00;99.90
56753;DHT22;42627;42.646;23.642;2023-03-09T01:11:21;2.90;99.90
56753;DHT22;42627;42.646;23.642;2023-03-09T01:13:22;3.00;99.90
56753;DHT22;42627;42.646;23.642;2023-03-09T01:15:22;2.90;99.90
56753;DHT22;42627;42.646;23.642;2023-03-09T01:17:23;2.70;99.90
56753;DHT22;42627;42.646;23.642;2023-03-09T01:19:24;2.70;99.90
56753;DHT22;42627;42.646;23.642;2023-03-09T01:21:25;3.10;99.90
56753;DHT22;42627;42.646;23.642;2023-03-09T01:23:39;2.60;99.90
56753;DHT22;42627;42.646;23.642;2023-03-09T01:25:40;2.70;99.90
56753;DHT22;42627;42.646;23.642;2023-03-09T01:27:40;2.70;99.90
56753;DHT22;42627;42.646;23.642;2023-03-09T01:29:41;3.00;99.90
56753;DHT22;42627;42.646;23.642;2023-03-09T01:31:42;2.60;99.90
56753;DHT22;42627;42.646;23.642;2023-03-09T01:34:01;2.60;99.90
56753;DHT22;42627;42.646;23.642;2023-03-09T01:36:34;2.60;99.90
56753;DHT22;42627;42.646;23.642;2023-03-09T01:38:53;2.60;99.90
56753;DHT22;42627;42.646;23.642;2023-03-09T01:40:53;2.80;99.90
56753;DHT22;42627;42.646;23.642;2023-03-09T01:42:59;2.80;99.90
56753;DHT22;42627;42.646;23.642;2023-03-09T01:47:19;2.80;99.90
56753;DHT22;42627;42.646;23.642;2023-03-09T01:49:39;2.60;99.90
56753;DHT22;42627;42.646;23.642;2023-03-09T01:51:51;2.70;99.90
56753;DHT22;42627;42.646;23.642;2023-03-09T01:54:05;2.70;99.90
56753;DHT22;42627;42.646;23.642;2023-03-09T01:56:07;2.70;99.90
56753;DHT22;42627;42.646;23.642;2023-03-09T01:58:11;2.60;99.90
56753;DHT22;42627;42.646;23.642;2023-03-09T02:00:18;2.70;99.90
56753;DHT22;42627;42.646;23.642;2023-03-09T02:02:21;2.60;99.90
56753;DHT22;42627;42.646;23.642;2023-03-09T02:04:57;2.60;99.90
56753;DHT22;42627;42.646;23.642;2023-03-09T02:07:12;2.60;99.90
56753;DHT22;42627;42.646;23.642;2023-03-09T02:09:43;2.80;99.90
56753;DHT22;42627;42.646;23.642;2023-03-09T02:11:45;2.60;99.90
56753;DHT22;42627;42.646;23.642;2023-03-09T02:13:48;2.60;99.90
56753;DHT22;42627;42.646;23.642;2023-03-09T02:15:51;2.50;99.90
56753;DHT22;42627;42.646;23.642;2023-03-09T02:17:51;2.50;99.90
56753;DHT22;42627;42.646;23.642;2023-03-09T02:20:32;2.40;99.90
56753;DHT22;42627;42.646;23.642;2023-03-09T02:22:40;2.50;99.90
56753;DHT22;42627;42.646;23.642;2023-03-09T02:26:59;2.40;99.90
56753;DHT22;42627;42.646;23.642;2023-03-09T02:29:00;2.40;99.90
56753;DHT22;42627;42.646;23.642;2023-03-09T02:31:01;2.40;99.90
56753;DHT22;42627;42.646;23.642;2023-03-09T02:33:25;2.40;99.90
56753;DHT22;42627;42.646;23.642;2023-03-09T02:35:38;2.50;99.90
56753;DHT22;42627;42.646;23.642;2023-03-09T02:37:58;2.50;99.90
56753;DHT22;42627;42.646;23.642;2023-03-09T02:42:10;2.50;99.90
56753;DHT22;42627;42.646;23.642;2023-03-09T02:44:11;2.50;99.90
56753;DHT22;42627;42.646;23.642;2023-03-09T02:46:14;2.60;99.90
56753;DHT22;42627;42.646;23.642;2023-03-09T02:48:15;2.80;99.90
56753;DHT22;42627;42.646;23.642;2023-03-09T02:50:16;2.60;99.90
56753;DHT22;42627;42.646;23.642;2023-03-09T02:52:25;2.60;99.90
56753;DHT22;42627;42.646;23.642;2023-03-09T02:54:25;2.60;99.90
56753;DHT22;42627;42.646;23.642;2023-03-09T02:56:26;2.60;99.90
56753;DHT22;42627;42.646;23.642;2023-03-09T02:58:27;2.50;99.90
56753;DHT22;42627;42.646;23.642;2023-03-09T03:00:27;2.60;99.90
56753;DHT22;42627;42.646;23.642;2023-03-09T03:02:42;2.60;99.90
56753;DHT22;42627;42.646;23.642;2023-03-09T03:05:07;2.40;99.90
56753;DHT22;42627;42.646;23.642;2023-03-09T03:07:07;2.40;99.90
56753;DHT22;42627;42.646;23.642;2023-03-09T03:09:08;2.40;99.90
56753;DHT22;42627;42.646;23.642;2023-03-09T03:11:09;2.40;99.90
56753;DHT22;42627;42.646;23.642;2023-03-09T03:13:10;2.70;99.90
56753;DHT22;42627;42.646;23.642;2023-03-09T03:15:11;2.30;99.90
56753;DHT22;42627;42.646;23.642;2023-03-09T03:17:11;2.40;99.90
56753;DHT22;42627;42.646;23.642;2023-03-09T03:19:12;2.20;99.90
56753;DHT22;42627;42.646;23.642;2023-03-09T03:21:13;2.30;99.90
56753;DHT22;42627;42.646;23.642;2023-03-09T03:23:19;2.20;99.90
56753;DHT22;42627;42.646;23.642;2023-03-09T03:25:19;2.30;99.90
56753;DHT22;42627;42.646;23.642;2023-03-09T03:27:20;2.50;99.90
56753;DHT22;42627;42.646;23.642;2023-03-09T03:29:21;2.20;99.90
56753;DHT22;42627;42.646;23.642;2023-03-09T03:31:22;2.10;99.90
56753;DHT22;42627;42.646;23.642;2023-03-09T03:33:40;2.10;99.90
56753;DHT22;42627;42.646;23.642;2023-03-09T03:35:55;2.20;99.90
56753;DHT22;42627;42.646;23.642;2023-03-09T03:38:01;2.20;99.90
56753;DHT22;42627;42.646;23.642;2023-03-09T03:40:01;2.20;99.90
56753;DHT22;42627;42.646;23.642;2023-03-09T03:42:06;2.20;99.90
56753;DHT22;42627;42.646;23.642;2023-03-09T03:44:07;2.30;99.90
56753;DHT22;42627;42.646;23.642;2023-03-09T03:46:08;2.20;99.90
56753;DHT22;42627;42.646;23.642;2023-03-09T03:48:08;2.50;99.90
56753;DHT22;42627;42.646;23.642;2023-03-09T03:50:09;2.20;99.90
56753;DHT22;42627;42.646;23.642;2023-03-09T03:52:19;2.20;99.90
56753;DHT22;42627;42.646;23.642;2023-03-09T03:54:20;2.40;99.90
56753;DHT22;42627;42.646;23.642;2023-03-09T03:56:20;2.10;99.90
56753;DHT22;42627;42.646;23.642;2023-03-09T03:58:21;2.50;99.90
56753;DHT22;42627;42.646;23.642;2023-03-09T04:00:22;2.40;99.90
56753;DHT22;42627;42.646;23.642;2023-03-09T04:02:28;2.30;99.90
56753;DHT22;42627;42.646;23.642;2023-03-09T04:04:53;2.30;99.90
56753;DHT22;42627;42.646;23.642;2023-03-09T04:07:04;2.40;99.90
56753;DHT22;42627;42.646;23.642;2023-03-09T04:09:04;2.40;99.90
56753;DHT22;42627;42.646;23.642;2023-03-09T04:11:07;2.40;99.90
56753;DHT22;42627;42.646;23.642;2023-03-09T04:13:08;2.40;99.90
56753;DHT22;42627;42.646;23.642;2023-03-09T04:15:09;2.50;99.90
56753;DHT22;42627;42.646;23.642;2023-03-09T04:17:09;2.50;99.90
56753;DHT22;42627;42.646;23.642;2023-03-09T04:19:10;2.60;99.90
56753;DHT22;42627;42.646;23.642;2023-03-09T04:21:11;2.50;99.90
56753;DHT22;42627;42.646;23.642;2023-03-09T04:23:12;2.60;99.90
56753;DHT22;42627;42.646;23.642;2023-03-09T04:25:12;2.40;99.90
56753;DHT22;42627;42.646;23.642;2023-03-09T04:27:13;2.50;99.90
56753;DHT22;42627;42.646;23.642;2023-03-09T04:29:14;2.70;99.90
56753;DHT22;42627;42.646;23.642;2023-03-09T04:31:14;2.90;99.90
56753;DHT22;42627;42.646;23.642;2023-03-09T04:33:15;2.80;99.90
56753;DHT22;42627;42.646;23.642;2023-03-09T04:35:16;2.80;99.90
56753;DHT22;42627;42.646;23.642;2023-03-09T04:37:25;2.80;99.90
56753;DHT22;42627;42.646;23.642;2023-03-09T04:39:38;2.80;99.90
56753;DHT22;42627;42.646;23.642;2023-03-09T04:41:58;2.80;99.90
56753;DHT22;42627;42.646;23.642;2023-03-09T04:43:58;3.00;99.90
56753;DHT22;42627;42.646;23.642;2023-03-09T04:45:59;2.80;99.90
56753;DHT22;42627;42.646;23.642;2023-03-09T04:48:00;2.80;99.90
56753;DHT22;42627;42.646;23.642;2023-03-09T04:50:00;2.80;99.90
56753;DHT22;42627;42.646;23.642;2023-03-09T04:52:01;2.70;99.90
56753;DHT22;42627;42.646;23.642;2023-03-09T04:54:02;2.80;99.90
56753;DHT22;42627;42.646;23.642;2023-03-09T04:56:11;2.80;99.90
56753;DHT22;42627;42.646;23.642;2023-03-09T04:58:12;2.80;99.90
56753;DHT22;42627;42.646;23.642;2023-03-09T05:00:13;2.80;99.90
56753;DHT22;42627;42.646;23.642;2023-03-09T05:02:14;2.70;99.90
56753;DHT22;42627;42.646;23.642;2023-03-09T05:04:14;2.70;99.90
56753;DHT22;42627;42.646;23.642;2023-03-09T05:06:37;2.70;99.90
56753;DHT22;42627;42.646;23.642;2023-03-09T05:08:56;2.70;99.90
56753;DHT22;42627;42.646;23.642;2023-03-09T05:11:18;2.70;99.90
56753;DHT22;42627;42.646;23.642;2023-03-09T05:13:19;2.70;99.90
56753;DHT22;42627;42.646;23.642;2023-03-09T05:15:19;2.80;99.90
56753;DHT22;42627;42.646;23.642;2023-03-09T05:17:20;3.10;99.90
56753;DHT22;42627;42.646;23.642;2023-03-09T05:19:21;3.10;99.90
56753;DHT22;42627;42.646;23.642;2023-03-09T05:21:21;3.10;99.90
56753;DHT22;42627;42.646;23.642;2023-03-09T05:23:22;3.20;99.90
56753;DHT22;42627;42.646;23.642;2023-03-09T05:25:23;3.20;99.90
56753;DHT22;42627;42.646;23.642;2023-03-09T05:27:29;3.40;99.90
56753;DHT22;42627;42.646;23.642;2023-03-09T05:29:31;3.50;99.90
56753;DHT22;42627;42.646;23.642;2023-03-09T05:31:31;3.60;99.90
56753;DHT22;42627;42.646;23.642;2023-03-09T05:33:32;3.70;99.90
56753;DHT22;42627;42.646;23.642;2023-03-09T05:35:33;3.80;99.90
56753;DHT22;42627;42.646;23.642;2023-03-09T05:37:57;3.90;99.90
56753;DHT22;42627;42.646;23.642;2023-03-09T05:40:16;3.90;99.90
56753;DHT22;42627;42.646;23.642;2023-03-09T05:42:26;4.00;99.90
56753;DHT22;42627;42.646;23.642;2023-03-09T06:07:13;4.10;99.90
56753;DHT22;42627;42.646;23.642;2023-03-09T18:50:20;5.30;99.90
56753;DHT22;42627;42.646;23.642;2023-03-09T18:52:30;14.50;65.50
56753;DHT22;42627;42.646;23.642;2023-03-09T18:54:31;14.20;66.00
56753;DHT22;42627;42.646;23.642;2023-03-09T18:56:31;14.20;66.30
56753;DHT22;42627;42.646;23.642;2023-03-09T18:58:34;14.10;66.50
56753;DHT22;42627;42.646;23.642;2023-03-09T19:00:36;14.00;66.20
56753;DHT22;42627;42.646;23.642;2023-03-09T19:02:36;14.00;66.60
56753;DHT22;42627;42.646;23.642;2023-03-09T19:06:49;13.90;66.60
56753;DHT22;42627;42.646;23.642;2023-03-09T19:11:00;13.80;67.00
56753;DHT22;42627;42.646;23.642;2023-03-09T19:13:00;13.70;67.50
56753;DHT22;42627;42.646;23.642;2023-03-09T19:17:03;13.70;67.30
56753;DHT22;42627;42.646;23.642;2023-03-09T19:19:04;13.60;68.30
56753;DHT22;42627;42.646;23.642;2023-03-09T19:21:09;13.50;68.20
56753;DHT22;42627;42.646;23.642;2023-03-09T19:23:11;13.50;68.20
56753;DHT22;42627;42.646;23.642;2023-03-09T19:25:30;13.40;68.20
56753;DHT22;42627;42.646;23.642;2023-03-09T19:27:42;13.30;68.20
56753;DHT22;42627;42.646;23.642;2023-03-09T19:29:48;13.30;68.50
56753;DHT22;42627;42.646;23.642;2023-03-09T19:31:49;13.30;68.60
56753;DHT22;42627;42.646;23.642;2023-03-09T19:33:49;13.20;68.60
56753;DHT22;42627;42.646;23.642;2023-03-09T19:37:55;13.30;69.20
56753;DHT22;42627;42.646;23.642;2023-03-09T19:39:56;13.20;69.40
56753;DHT22;42627;42.646;23.642;2023-03-09T19:41:56;13.20;69.40
56753;DHT22;42627;42.646;23.642;2023-03-09T19:44:03;13.20;69.30
56753;DHT22;42627;42.646;23.642;2023-03-09T19:46:06;13.20;69.60
56753;DHT22;42627;42.646;23.642;2023-03-09T19:48:07;13.20;70.20
56753;DHT22;42627;42.646;23.642;2023-03-09T19:50:09;13.20;69.90
56753;DHT22;42627;42.646;23.642;2023-03-09T19:52:10;13.10;69.80
56753;DHT22;42627;42.646;23.642;2023-03-09T19:54:23;13.10;69.70
56753;DHT22;42627;42.646;23.642;2023-03-09T19:56:50;13.10;70.10
56753;DHT22;42627;42.646;23.642;2023-03-09T19:59:12;13.10;70.00
56753;DHT22;42627;42.646;23.642;2023-03-09T20:01:19;13.10;70.00
56753;DHT22;42627;42.646;23.642;2023-03-09T20:11:27;13.10;70.00
56753;DHT22;42627;42.646;23.642;2023-03-09T20:13:37;13.00;71.50
56753;DHT22;42627;42.646;23.642;2023-03-09T20:15:37;12.90;72.00
56753;DHT22;42627;42.646;23.642;2023-03-09T20:17:38;12.70;72.70
56753;DHT22;42627;42.646;23.642;2023-03-09T20:19:39;12.70;73.10
56753;DHT22;42627;42.646;23.642;2023-03-09T20:21:39;12.60;73.40
56753;DHT22;42627;42.646;23.642;2023-03-09T20:23:59;12.60;74.20
56753;DHT22;42627;42.646;23.642;2023-03-09T20:26:53;12.50;74.90
56753;DHT22;42627;42.646;23.642;2023-03-09T20:28:55;12.40;75.10
56753;DHT22;42627;42.646;23.642;2023-03-09T20:37:01;12.40;75.50
56753;DHT22;42627;42.646;23.642;2023-03-09T20:39:04;12.30;78.80
56753;DHT22;42627;42.646;23.642;2023-03-09T20:55:56;12.30;77.80
56753;DHT22;42627;42.646;23.642;2023-03-09T20:58:09;12.10;81.00
56753;DHT22;42627;42.646;23.642;2023-03-09T21:02:13;12.10;82.10
56753;DHT22;42627;42.646;23.642;2023-03-09T21:12:31;12.00;82.70
56753;DHT22;42627;42.646;23.642;2023-03-09T21:14:32;12.00;80.20
56753;DHT22;42627;42.646;23.642;2023-03-09T21:16:32;12.10;80.10
56753;DHT22;42627;42.646;23.642;2023-03-09T22:44:41;12.10;78.10
56753;DHT22;42627;42.646;23.642;2023-03-09T22:46:47;11.90;76.60
56753;DHT22;42627;42.646;23.642;2023-03-09T22:48:48;11.90;77.00
56753;DHT22;42627;42.646;23.642;2023-03-09T22:56:53;11.90;76.60
56753;DHT22;42627;42.646;23.642;2023-03-09T22:59:18;11.80;76.80
56753;DHT22;42627;42.646;23.642;2023-03-09T23:01:37;11.70;76.80
56753;DHT22;42627;42.646;23.642;2023-03-09T23:03:38;11.70;76.90
56753;DHT22;42627;42.646;23.642;2023-03-09T23:05:40;11.70;76.70
56753;DHT22;42627;42.646;23.642;2023-03-09T23:07:41;11.70;77.00
56753;DHT22;42627;42.646;23.642;2023-03-09T23:09:41;11.60;77.20
56753;DHT22;42627;42.646;23.642;2023-03-09T23:11:47;11.60;77.30
56753;DHT22;42627;42.646;23.642;2023-03-09T23:18:00;11.40;78.10
56753;DHT22;42627;42.646;23.642;2023-03-09T23:20:02;11.40;78.30
56753;DHT22;42627;42.646;23.642;2023-03-09T23:22:04;11.30;79.00
56753;DHT22;42627;42.646;23.642;2023-03-09T23:24:05;11.20;79.40
56753;DHT22;42627;42.646;23.642;2023-03-09T23:26:06;11.20;79.70
56753;DHT22;42627;42.646;23.642;2023-03-09T23:28:07;11.10;79.70
56753;DHT22;42627;42.646;23.642;2023-03-09T23:30:09;11.10;80.20
56753;DHT22;42627;42.646;23.642;2023-03-09T23:32:38;11.10;80.50
56753;DHT22;42627;42.646;23.642;2023-03-09T23:35:31;11.00;81.00
56753;DHT22;42627;42.646;23.642;2023-03-09T23:37:32;11.00;81.10
56753;DHT22;42627;42.646;23.642;2023-03-09T23:39:32;11.00;81.70
56753;DHT22;42627;42.646;23.642;2023-03-09T23:41:33;11.00;81.90
56753;DHT22;42627;42.646;23.642;2023-03-09T23:43:34;11.00;83.30
56753;DHT22;42627;42.646;23.642;2023-03-09T23:55:42;11.00;82.60
56753;DHT22;42627;42.646;23.642;2023-03-09T23:57:43;10.80;84.80
56753;DHT22;42627;42.646;23.642;2023-03-09T23:59:43;10.70;85.10
